KSTS/STS METAR and TAF weather

Enter ICAO airport designator
Station Type Date Time Source
KSTS METAR 2020/05/29 18:53 UTC NOAA

KSTS 291853Z 18007KT 10SM FEW017 SCT250 19/12 A2988 RMK AO2 SLP112 T01890122


Station Type Date Time Source
KSTS Decoded METAR 2020/05/29 18:53 UTC NOAA

SANTA ROSA SONOMA COUNTY, CA, United States (KSTS) 38-30N 122-49W 39M
May 29, 2020 - 02:53 PM EDT / 2020.05.29 1853 UTC
Wind: from the S (180 degrees) at 8 MPH (7 KT):0
Visibility: 10 mile(s):0
Sky conditions: partly cloudy
Temperature: 66.0 F (18.9 C)
Dew Point: 54.0 F (12.2 C)
Relative Humidity: 65%
Pressure (altimeter): 29.88 in. Hg (1011 hPa)
ob: KSTS 291853Z 18007KT 10SM FEW017 SCT250 19/12 A2988 RMK AO2 SLP112 T01890122
cycle: 19

Station Type Date Time Source
KSTS TAF 2020/05/29 18:36 UTC NOAA

TAF KSTS 291734Z 2918/3018 00000KT P6SM BKN010
FM291930 18010KT P6SM FEW015 SCT035 BKN200
FM300300 17008KT P6SM FEW050 BKN100
FM300800 19008KT P6SM -SHRA FEW020 SCT040 BKN080
FM301200 16007KT P6SM -RA BKN020

Example: see airport list